KBHB

Hancock County-Bar Harbor Airport

Bar Harbor, Maine, USA
KBHB 232020Z 2320/2418 20010KT P6SM FEW250 FM241400 20014KT P6SM FEW250
Issued Valid From Valid To
Apr-23 @ 20:20 UTC
(2 hours ago)
Apr-23 @ 20:00 UTC
(3 hours ago)
Apr-24 @ 18:00 UTC
(in 19 hours)
Apr-23 @ 20:00 to Apr-24 @ 14:00
KBHB 232020Z 2320/2418 20010KT P6SM FEW250
Wind Visibility Clouds
200° at 10 knots Greater than 6 miles
  • Few at 25,000' AGL
From Apr-24 @ 14:00 to Apr-24 @ 18:00
FM241400 20014KT P6SM FEW250
Wind Visibility Clouds
200° at 14 knots Greater than 6 miles
  • Few at 25,000' AGL
KBHB 232020Z 2320/2418 20010KT P6SM FEW250 FM241400 20014KT P6SM FEW250
Issued Apr-23 @ 20:20 UTC
(2 hours ago)
Valid From Apr-23 @ 20:00 UTC
(3 hours ago)
Valid To Apr-24 @ 18:00 UTC
(in 19 hours)
Apr-23 @ 20:00 - Apr-24 @ 14:00
Wind Visibility
200° at 10 knots Greater than 6 miles
Clouds
  • Few at 25,000' AGL
From Apr-24 @ 14:00 - Apr-24 @ 18:00
Wind Visibility
200° at 14 knots Greater than 6 miles
Clouds
  • Few at 25,000' AGL